Time;durP1;ratioP1;P1;durP2;ratioP2;P2;SDS_P1;SDS_P2;PMS_P1;PMS_P2;Temp;Humidity;BMP_temperature;BMP_pressure;BME280_temperature;BME280_humidity;BME280_pressure;Samples;Min_cycle;Max_cycle;Signal;HPM_P1;HPM_P2
2023/03/01 00:00:26;;;;;;;;;;;;;;;18.17;63.48;102447.52;2080696;85;22248;-74
2023/03/01 00:03:35;;;;;;;;;;;;;;;18.17;63.38;102437.30;2088067;84;22455;-74
2023/03/01 00:06:51;;;;;;;;;;;;;;;18.13;63.58;102441.22;2088953;85;22284;-75
2023/03/01 00:10:06;;;;;;;;;;;;;;;18.08;63.92;102446.14;2086438;85;22309;-74
2023/03/01 00:13:12;;;;;;;;;;;;;;;18.03;64.08;102444.73;2107587;78;22441;-75
2023/03/01 00:16:33;;;;;;;;;;;;;;;18.09;63.92;102433.13;2155958;82;22986;-75
2023/03/01 00:19:40;;;;;;;;;;;;;;;18.15;63.70;102424.03;2155753;81;22566;-74
2023/03/01 00:22:47;;;;;;;;;;;;;;;18.25;63.53;102428.08;2150529;81;22233;-74
2023/03/01 00:26:04;;;;;;;;;;;;;;;;;;;;;
2023/03/01 00:32:38;;;;;;;;;;;;;;;;;;;;;
2023/03/01 00:35:44;;;;;;;;;;;;;;;18.29;63.29;102421.47;2055861;86;22223;-74
2023/03/01 00:38:52;;;;;;;;;;;;;;;18.26;63.34;102417.70;2045094;86;22813;-74
2023/03/01 00:42:08;;;;;;;;;;;;;;;18.24;63.45;102416.52;2078986;85;22364;-74
2023/03/01 00:45:00;;;;;;;;;;;;;;;18.21;63.51;102411.44;2085816;82;22353;-74
2023/03/01 00:48:12;;;;;;;;;;;;;;;18.16;63.67;102408.80;2106600;83;51410;-74
2023/03/01 00:51:22;;;;;;;;;;;;;;;18.11;64.05;102407.89;2083414;84;22339;-74
2023/03/01 00:54:25;;;;;;;;;;;;;;;18.04;64.21;102404.90;1981923;82;22626;-75
2023/03/01 00:57:39;;;;;;;;;;;;;;;18.08;64.18;102409.98;1945171;90;22421;-75
2023/03/01 01:00:48;;;;;;;;;;;;;;;18.18;63.89;102406.33;1892004;93;51563;-75
2023/03/01 01:03:54;;;;;;;;;;;;;;;18.23;63.71;102405.92;1894171;92;22510;-75
2023/03/01 01:07:01;;;;;;;;;;;;;;;18.25;63.62;102408.82;1893858;94;22417;-74
2023/03/01 01:10:25;;;;;;;;;;;;;;;18.25;63.58;102398.61;1893587;94;21751;-75
2023/03/01 01:13:46;;;;;;;;;;;;;;;;;;;;;
2023/03/01 01:16:34;;;;;;;;;;;;;;;18.25;63.58;102399.95;1887466;94;22216;-75
2023/03/01 01:19:35;;;;;;;;;;;;;;;18.23;63.65;102392.53;1892059;94;21841;-75
2023/03/01 01:22:47;;;;;;;;;;;;;;;18.18;63.82;102386.73;1893881;93;51774;-74
2023/03/01 01:26:08;;;;;;;;;;;;;;;18.15;63.99;102380.33;1862315;94;22486;-74
2023/03/01 01:32:43;;;;;;;;;;;;;;;18.01;64.48;102373.03;1941167;90;22628;-75
2023/03/01 01:35:48;;;;;;;;;;;;;;;18.01;64.46;102366.34;2057978;85;22594;-74
2023/03/01 01:39:14;;;;;;;;;;;;;;;18.08;64.35;102357.74;2099678;85;22415;-74
2023/03/01 01:42:36;;;;;;;;;;;;;;;18.16;64.12;102356.55;2157739;78;50713;-74
2023/03/01 01:45:59;;;;;;;;;;;;;;;18.25;63.88;102361.09;2235776;78;22161;-74
2023/03/01 01:49:09;;;;;;;;;;;;;;;;;;;;;
2023/03/01 01:52:12;;;;;;;;;;;;;;;18.28;63.65;102362.14;2215792;79;22439;-75
2023/03/01 01:55:24;;;;;;;;;;;;;;;18.27;63.64;102361.80;2155281;81;22398;-74
2023/03/01 02:05:25;;;;;;;;;;;;;;;18.19;63.84;102366.52;2114358;81;22243;-74
2023/03/01 02:08:33;;;;;;;;;;;;;;;18.15;63.93;102370.45;2092106;82;22632;-74
2023/03/01 02:12:06;;;;;;;;;;;;;;;;;;;;;
2023/03/01 02:17:58;;;;;;;;;;;;;;;18.05;64.46;102374.94;2119269;81;22495;-74
2023/03/01 02:21:15;;;;;;;;;;;;;;;18.10;64.33;102365.16;2156651;81;22798;-74
2023/03/01 02:31:56;;;;;;;;;;;;;;;18.21;63.82;102371.25;2141130;81;21649;-74
2023/03/01 02:34:21;;;;;;;;;;;;;;;18.20;63.82;102370.04;2122074;82;22378;-74
2023/03/01 02:37:24;;;;;;;;;;;;;;;18.18;63.79;102372.00;2191549;79;52349;-74
2023/03/01 02:40:25;;;;;;;;;;;;;;;18.18;63.79;102374.68;2191469;79;22266;-74
2023/03/01 02:43:28;;;;;;;;;;;;;;;18.16;63.80;102372.63;2168070;82;50752;-74
2023/03/01 02:46:29;;;;;;;;;;;;;;;18.11;63.88;102375.74;2168212;81;51544;-74
2023/03/01 02:49:32;;;;;;;;;;;;;;;18.05;64.11;102374.44;2172038;81;49583;-74
2023/03/01 02:52:44;;;;;;;;;;;;;;;18.00;64.37;102368.64;2167950;82;51524;-73
2023/03/01 02:55:45;;;;;;;;;;;;;;;17.99;64.41;102369.64;2157890;82;51426;-73
2023/03/01 02:58:51;;;;;;;;;;;;;;;18.05;64.29;102366.41;2164003;82;51575;-73
2023/03/01 03:01:50;;;;;;;;;;;;;;;18.12;64.10;102363.19;2158294;82;22736;-73
2023/03/01 03:04:52;;;;;;;;;;;;;;;18.18;63.96;102354.59;2135515;82;50354;-73
2023/03/01 03:07:53;;;;;;;;;;;;;;;18.22;63.85;102348.82;2134856;83;50444;-73
2023/03/01 03:10:55;;;;;;;;;;;;;;;18.25;63.69;102350.38;2134803;82;50397;-74
2023/03/01 03:13:57;;;;;;;;;;;;;;;18.26;63.66;102350.25;2124134;83;51159;-73
2023/03/01 03:16:59;;;;;;;;;;;;;;;18.25;63.66;102346.35;2146514;82;51498;-73
2023/03/01 03:20:00;;;;;;;;;;;;;;;18.23;63.65;102349.66;2146612;82;51549;-74
2023/03/01 03:23:02;;;;;;;;;;;;;;;18.21;63.67;102348.95;2146392;81;50003;-73
2023/03/01 03:26:04;;;;;;;;;;;;;;;18.17;63.73;102355.59;2147656;82;52477;-73
2023/03/01 03:29:05;;;;;;;;;;;;;;;18.14;63.81;102358.55;2183583;79;51481;-75
2023/03/01 03:32:07;;;;;;;;;;;;;;;18.09;63.89;102346.91;2180865;80;50402;-74
2023/03/01 03:35:09;;;;;;;;;;;;;;;18.04;64.20;102340.61;2185683;81;50385;-74
2023/03/01 03:38:15;;;;;;;;;;;;;;;18.03;64.30;102331.36;2162366;82;50776;-74
2023/03/01 03:41:14;;;;;;;;;;;;;;;18.10;64.23;102335.69;2173350;80;22193;-73
2023/03/01 03:44:16;;;;;;;;;;;;;;;18.15;64.05;102330.76;2185742;81;50030;-73
2023/03/01 03:47:17;;;;;;;;;;;;;;;18.17;63.88;102333.66;2162372;82;51624;-74
2023/03/01 03:50:19;;;;;;;;;;;;;;;18.19;63.80;102334.87;2162446;82;51611;-75
2023/03/01 03:53:21;;;;;;;;;;;;;;;18.18;63.72;102326.45;2173187;82;50537;-74
2023/03/01 03:56:25;;;;;;;;;;;;;;;18.16;63.82;102321.72;2173719;82;51478;-74
2023/03/01 03:59:26;;;;;;;;;;;;;;;18.12;63.83;102319.83;2199934;79;22293;-74
2023/03/01 04:02:27;;;;;;;;;;;;;;;18.12;63.77;102313.62;2149773;81;50704;-74
2023/03/01 04:05:29;;;;;;;;;;;;;;;18.09;64.07;102311.23;2190769;81;49999;-75
2023/03/01 04:08:31;;;;;;;;;;;;;;;18.02;64.09;102311.77;2180661;81;51510;-76
2023/03/01 04:11:34;;;;;;;;;;;;;;;17.97;64.27;102303.30;2180486;81;51454;-74
2023/03/01 04:14:36;;;;;;;;;;;;;;;17.94;64.42;102311.63;2180702;81;50725;-76
2023/03/01 04:17:39;;;;;;;;;;;;;;;17.99;64.34;102313.39;2180639;81;50422;-76
2023/03/01 04:20:40;;;;;;;;;;;;;;;18.03;64.19;102318.84;2184611;80;51537;-75
2023/03/01 04:23:43;;;;;;;;;;;;;;;18.11;64.03;102322.63;2193241;80;51536;-75
2023/03/01 04:26:44;;;;;;;;;;;;;;;18.15;63.85;102319.55;2164233;81;51660;-75
2023/03/01 04:29:46;;;;;;;;;;;;;;;18.21;63.67;102319.47;2185691;81;52012;-75
2023/03/01 04:32:47;;;;;;;;;;;;;;;18.22;63.57;102318.50;2194817;79;50744;-77
2023/03/01 04:35:49;;;;;;;;;;;;;;;18.24;63.48;102311.18;2195118;81;50742;-74
2023/03/01 04:38:51;;;;;;;;;;;;;;;18.21;63.50;102307.42;2162452;81;52440;-74
2023/03/01 04:41:53;;;;;;;;;;;;;;;18.19;63.49;102314.77;2194835;80;50467;-74
2023/03/01 04:44:54;;;;;;;;;;;;;;;18.16;63.48;102308.33;2195036;81;50685;-74
2023/03/01 04:47:58;;;;;;;;;;;;;;;18.14;63.54;102304.97;2185665;81;51502;-76
2023/03/01 04:50:59;;;;;;;;;;;;;;;18.11;63.64;102308.77;2167784;80;52388;-75
2023/03/01 04:54:01;;;;;;;;;;;;;;;18.06;63.70;102314.54;2208080;80;50350;-73
2023/03/01 04:57:03;;;;;;;;;;;;;;;17.98;63.98;102313.52;2209652;80;51619;-73
2023/03/01 05:00:23;;;;;;;;;;;;;;;17.98;64.00;102309.50;2166031;80;50465;-74
2023/03/01 05:03:11;;;;;;;;;;;;;;;18.02;63.98;102304.23;2163825;80;23246;-74
2023/03/01 05:06:13;;;;;;;;;;;;;;;18.10;63.75;102308.90;2209628;80;50480;-75
2023/03/01 05:09:14;;;;;;;;;;;;;;;18.15;63.55;102306.15;2209592;80;50395;-75
2023/03/01 05:12:16;;;;;;;;;;;;;;;18.17;63.42;102301.50;2209390;80;50418;-75
2023/03/01 05:15:17;;;;;;;;;;;;;;;18.18;63.37;102303.69;2143855;80;51632;-75
2023/03/01 05:18:19;;;;;;;;;;;;;;;18.16;63.35;102300.29;2209540;80;51503;-74
2023/03/01 05:21:20;;;;;;;;;;;;;;;18.15;63.32;102301.29;2207405;80;50781;-74
2023/03/01 05:24:22;;;;;;;;;;;;;;;18.14;63.41;102304.97;2208596;80;51481;-75
2023/03/01 05:27:24;;;;;;;;;;;;;;;18.09;63.49;102304.54;2147365;81;52518;-74
2023/03/01 05:30:26;;;;;;;;;;;;;;;18.05;63.52;102307.97;2201635;81;51475;-74
2023/03/01 05:33:28;;;;;;;;;;;;;;;17.99;63.63;102305.36;2203303;80;50491;-74
2023/03/01 05:36:30;;;;;;;;;;;;;;;17.96;63.83;102304.30;2201640;81;50712;-75
2023/03/01 05:39:31;;;;;;;;;;;;;;;17.96;63.95;102290.91;2179820;81;49583;-74
2023/03/01 05:42:33;;;;;;;;;;;;;;;18.01;63.86;102291.34;2201488;81;50722;-75
2023/03/01 05:45:36;;;;;;;;;;;;;;;18.05;63.78;102291.40;2201607;80;51463;-74
2023/03/01 05:48:38;;;;;;;;;;;;;;;18.11;63.66;102290.48;2201705;81;51442;-76
2023/03/01 05:51:41;;;;;;;;;;;;;;;18.16;63.49;102290.91;2165096;81;52468;-76
2023/03/01 05:54:42;;;;;;;;;;;;;;;18.21;63.41;102296.70;2199559;81;51569;-72
2023/03/01 05:57:44;;;;;;;;;;;;;;;18.22;63.38;102293.05;2201777;81;50305;-72
2023/03/01 06:00:46;;;;;;;;;;;;;;;18.22;63.26;102295.73;2203517;80;50423;-72
2023/03/01 06:03:48;;;;;;;;;;;;;;;18.21;63.08;102302.05;2217623;79;51507;-74
2023/03/01 06:06:49;;;;;;;;;;;;;;;18.19;62.98;102298.70;2235292;79;51481;-73
2023/03/01 06:09:51;;;;;;;;;;;;;;;18.16;62.89;102295.80;2230505;79;50402;-72
2023/03/01 06:12:52;;;;;;;;;;;;;;;18.15;62.81;102297.27;2232060;79;50544;-73
2023/03/01 06:15:54;;;;;;;;;;;;;;;18.13;62.79;102295.22;2232137;79;51704;-73
2023/03/01 06:18:55;;;;;;;;;;;;;;;18.08;62.88;102293.45;2217290;79;50142;-72
2023/03/01 06:21:57;;;;;;;;;;;;;;;18.04;63.03;102295.08;2218995;79;50385;-73
2023/03/01 06:24:59;;;;;;;;;;;;;;;18.05;63.06;102294.08;2204271;79;50818;-74
2023/03/01 06:28:00;;;;;;;;;;;;;;;18.12;62.98;102296.22;2237557;79;51120;-75
2023/03/01 06:31:02;;;;;;;;;;;;;;;18.15;62.85;102290.58;2244440;79;50328;-72
2023/03/01 06:34:03;;;;;;;;;;;;;;;18.19;62.70;102288.82;2242181;79;50004;-73
2023/03/01 06:37:05;;;;;;;;;;;;;;;18.23;62.53;102297.41;2204333;81;50413;-75
2023/03/01 06:40:07;;;;;;;;;;;;;;;18.23;62.47;102293.39;2203894;81;51543;-74
2023/03/01 06:43:09;;;;;;;;;;;;;;;18.22;62.40;102299.75;2203714;80;52068;-72
2023/03/01 06:46:11;;;;;;;;;;;;;;;18.19;62.41;102304.05;2204041;81;51520;-72
2023/03/01 06:49:12;;;;;;;;;;;;;;;18.14;62.12;102298.27;2204053;81;51551;-72
2023/03/01 06:52:14;;;;;;;;;;;;;;;18.15;61.82;102314.19;2144509;80;52457;-72
2023/03/01 06:55:15;;;;;;;;;;;;;;;18.08;61.81;102307.69;2184142;79;51585;-72
2023/03/01 06:58:17;;;;;;;;;;;;;;;18.06;61.81;102303.83;2208544;78;50012;-73
2023/03/01 07:01:19;;;;;;;;;;;;;;;18.09;61.96;102299.18;2187453;79;50407;-72
2023/03/01 07:04:20;;;;;;;;;;;;;;;18.13;61.92;102308.61;2199473;80;50422;-72
2023/03/01 07:07:22;;;;;;;;;;;;;;;18.19;61.77;102300.87;2188374;81;50705;-72
2023/03/01 07:10:24;;;;;;;;;;;;;;;18.26;61.54;102303.82;2199440;81;50520;-73
2023/03/01 07:13:25;;;;;;;;;;;;;;;18.34;61.28;102309.35;2186168;79;51593;-72
2023/03/01 07:16:27;;;;;;;;;;;;;;;18.40;61.12;102318.66;2178247;81;51479;-72
2023/03/01 07:19:28;;;;;;;;;;;;;;;18.44;60.92;102322.23;2190423;80;50522;-74
2023/03/01 07:22:30;;;;;;;;;;;;;;;18.47;60.69;102322.44;2181042;81;51875;-72
2023/03/01 07:25:32;;;;;;;;;;;;;;;18.49;60.55;102321.31;2168136;81;51520;-73
2023/03/01 07:28:39;;;;;;;;;;;;;;;18.47;60.50;102325.99;2160698;81;51694;-73
2023/03/01 07:31:36;;;;;;;;;;;;;;;18.45;60.47;102325.28;2193377;79;22203;-74
2023/03/01 07:34:38;;;;;;;;;;;;;;;18.43;60.41;102318.37;2197261;80;50420;-74
2023/03/01 07:37:40;;;;;;;;;;;;;;;18.42;60.40;102321.55;2196513;79;50707;-74
2023/03/01 07:40:41;;;;;;;;;;;;;;;18.39;60.37;102320.97;2202213;81;51351;-74
2023/03/01 07:43:43;;;;;;;;;;;;;;;18.35;60.37;102317.73;2173568;81;51476;-74
2023/03/01 07:46:44;;;;;;;;;;;;;;;18.32;60.37;102320.70;2186353;81;51535;-74
2023/03/01 07:49:46;;;;;;;;;;;;;;;18.36;60.20;102323.43;2204129;80;50548;-74
2023/03/01 07:52:48;;;;;;;;;;;;;;;18.37;60.00;102310.41;2181795;81;52331;-75
2023/03/01 07:55:49;;;;;;;;;;;;;;;18.40;59.79;102315.48;2196635;81;50330;-75
2023/03/01 07:58:51;;;;;;;;;;;;;;;18.39;59.69;102316.45;2205644;80;50407;-76
2023/03/01 08:01:52;;;;;;;;;;;;;;;18.36;59.66;102314.05;2225905;79;50667;-76
2023/03/01 08:04:54;;;;;;;;;;;;;;;18.32;59.71;102307.80;2158328;81;51674;-75
2023/03/01 08:07:56;;;;;;;;;;;;;;;18.29;59.79;102314.28;2193572;80;50059;-75
2023/03/01 08:10:58;;;;;;;;;;;;;;;18.27;59.87;102304.20;2203997;80;50695;-76
2023/03/01 08:13:59;;;;;;;;;;;;;;;18.25;59.90;102315.54;2202149;81;51558;-75
2023/03/01 08:17:02;;;;;;;;;;;;;;;18.21;59.92;102307.42;2181442;81;51628;-75
2023/03/01 08:20:06;;;;;;;;;;;;;;;18.19;59.94;102304.89;2204280;81;50368;-75
2023/03/01 08:23:07;;;;;;;;;;;;;;;18.19;60.03;102306.23;2204435;81;22124;-75
2023/03/01 08:26:10;;;;;;;;;;;;;;;18.22;60.00;102307.29;2209683;79;50271;-75
2023/03/01 08:29:11;;;;;;;;;;;;;;;18.29;59.92;102300.89;2180491;81;50050;-76
2023/03/01 08:32:13;;;;;;;;;;;;;;;18.34;59.84;102303.99;2202132;79;50732;-75
2023/03/01 08:35:14;;;;;;;;;;;;;;;18.38;59.80;102300.02;2204295;80;51353;-74
2023/03/01 08:38:16;;;;;;;;;;;;;;;18.41;59.65;102293.53;2201544;80;51467;-75
2023/03/01 08:41:18;;;;;;;;;;;;;;;18.41;59.62;102290.35;2164106;81;52616;-74
2023/03/01 08:44:20;;;;;;;;;;;;;;;18.35;59.75;102294.95;2169008;82;50751;-74
2023/03/01 08:47:22;;;;;;;;;;;;;;;18.32;59.80;102297.08;2110167;83;51495;-74
2023/03/01 08:50:24;;;;;;;;;;;;;;;18.30;59.85;102291.84;2096666;85;50498;-74
2023/03/01 08:53:25;;;;;;;;;;;;;;;18.26;59.88;102293.11;2186983;80;50059;-74
2023/03/01 08:56:27;;;;;;;;;;;;;;;18.18;59.99;102281.75;2192214;81;52047;-74
2023/03/01 08:59:29;;;;;;;;;;;;;;;18.16;60.02;102282.41;2179419;80;51492;-74
2023/03/01 09:02:31;;;;;;;;;;;;;;;18.13;60.07;102284.50;2183419;81;50371;-74
2023/03/01 09:05:33;;;;;;;;;;;;;;;18.15;60.05;102285.22;2173007;81;51160;-74
2023/03/01 09:08:35;;;;;;;;;;;;;;;18.18;60.00;102282.25;2202438;81;51500;-74
2023/03/01 09:11:37;;;;;;;;;;;;;;;18.22;59.93;102275.64;2189769;81;51587;-75
2023/03/01 09:14:40;;;;;;;;;;;;;;;18.31;59.76;102272.09;2193818;80;51451;-74
2023/03/01 09:17:42;;;;;;;;;;;;;;;18.36;59.62;102276.53;2181438;79;21724;-74
2023/03/01 09:20:43;;;;;;;;;;;;;;;18.37;59.52;102269.33;2184073;81;50463;-74
2023/03/01 09:23:45;;;;;;;;;;;;;;;18.36;59.51;102271.67;2198930;81;50737;-74
2023/03/01 09:26:47;;;;;;;;;;;;;;;18.33;59.54;102271.46;2197193;81;50449;-74
2023/03/01 09:29:49;;;;;;;;;;;;;;;18.28;59.57;102268.36;2156358;81;52541;-74
2023/03/01 09:32:50;;;;;;;;;;;;;;;18.25;59.60;102270.83;2178864;81;51397;-74
2023/03/01 09:35:54;;;;;;;;;;;;;;;18.20;59.69;102268.23;2179215;80;51876;-74
2023/03/01 09:38:55;;;;;;;;;;;;;;;18.15;59.79;102267.80;2178022;80;51515;-74
2023/03/01 09:41:59;;;;;;;;;;;;;;;18.14;59.87;102268.80;2178650;81;51508;-74
2023/03/01 09:45:05;;;;;;;;;;;;;;;18.14;59.82;102263.45;2179349;81;50113;-74
2023/03/01 09:48:06;;;;;;;;;;;;;;;18.14;59.90;102258.09;2179263;80;51461;-74
2023/03/01 09:51:09;;;;;;;;;;;;;;;18.18;59.80;102262.16;2179268;81;51549;-74
2023/03/01 09:54:11;;;;;;;;;;;;;;;18.25;59.64;102266.81;2159905;81;51089;-74
2023/03/01 09:57:19;;;;;;;;;;;;;;;18.31;59.51;102264.05;2185141;81;50396;-74
2023/03/01 10:00:22;;;;;;;;;;;;;;;18.34;59.42;102263.80;2179241;81;50719;-75
2023/03/01 10:03:26;;;;;;;;;;;;;;;18.39;59.26;102264.69;2179113;80;50745;-75
2023/03/01 10:06:27;;;;;;;;;;;;;;;18.38;59.25;102268.36;2156153;81;52358;-75
2023/03/01 10:09:30;;;;;;;;;;;;;;;18.34;59.36;102266.47;2186568;79;51605;-75
2023/03/01 10:12:33;;;;;;;;;;;;;;;18.33;59.35;102267.44;2202314;81;50466;-75
2023/03/01 10:15:36;;;;;;;;;;;;;;;18.24;59.47;102261.11;2202501;80;51979;-75
2023/03/01 10:18:38;;;;;;;;;;;;;;;18.20;59.54;102264.20;2202375;81;51448;-74
2023/03/01 10:21:41;;;;;;;;;;;;;;;18.17;59.48;102263.16;2202168;80;50748;-74
2023/03/01 10:24:42;;;;;;;;;;;;;;;18.13;59.57;102273.28;2202231;81;51574;-75
2023/03/01 10:27:49;;;;;;;;;;;;;;;18.15;59.50;102258.42;2201741;81;50778;-74
2023/03/01 10:30:50;;;;;;;;;;;;;;;18.14;59.50;102264.78;2179756;81;50931;-74
2023/03/01 10:33:54;;;;;;;;;;;;;;;18.17;59.31;102268.52;2201547;81;50406;-75
2023/03/01 10:37:00;;;;;;;;;;;;;;;18.23;59.09;102258.56;2203526;80;22137;-74
2023/03/01 10:40:07;;;;;;;;;;;;;;;18.29;58.96;102255.34;2188823;81;50380;-74
2023/03/01 10:43:06;;;;;;;;;;;;;;;18.33;58.85;102254.05;2164475;82;22367;-75
2023/03/01 10:46:24;;;;;;;;;;;;;;;18.35;58.76;102250.73;2163973;81;51520;-74
2023/03/01 10:49:26;;;;;;;;;;;;;;;18.32;58.74;102248.34;2163966;81;51496;-75
2023/03/01 10:52:29;;;;;;;;;;;;;;;18.31;58.77;102242.62;2163443;80;52198;-75
2023/03/01 10:55:37;;;;;;;;;;;;;;;18.27;58.73;102243.41;2142361;82;51206;-75
2023/03/01 10:58:39;;;;;;;;;;;;;;;18.21;58.80;102246.66;2165003;82;51577;-73
2023/03/01 11:01:40;;;;;;;;;;;;;;;18.19;58.75;102238.42;2174501;79;50361;-75
2023/03/01 11:04:44;;;;;;;;;;;;;;;18.14;58.81;102233.48;2180269;81;51526;-75
2023/03/01 11:07:56;;;;;;;;;;;;;;;18.13;58.85;102229.59;2164364;81;52325;-75
2023/03/01 11:11:05;;;;;;;;;;;;;;;18.12;58.85;102222.05;2180176;81;50423;-74
2023/03/01 11:14:08;;;;;;;;;;;;;;;18.16;58.82;102217.24;2180274;80;51576;-74
2023/03/01 11:17:23;;;;;;;;;;;;;;;18.23;58.70;102213.02;2180382;81;51532;-75
2023/03/01 11:20:26;;;;;;;;;;;;;;;18.27;58.60;102210.41;2180165;81;50406;-74
2023/03/01 11:23:28;;;;;;;;;;;;;;;18.32;58.46;102201.45;2166856;81;50187;-75
2023/03/01 11:26:30;;;;;;;;;;;;;;;18.38;58.23;102195.50;2186222;79;51620;-75
2023/03/01 11:29:36;;;;;;;;;;;;;;;18.40;58.08;102207.44;2200191;79;50734;-75
2023/03/01 11:32:42;;;;;;;;;;;;;;;18.40;58.10;102195.38;2200351;79;50797;-75
2023/03/01 11:35:58;;;;;;;;;;;;;;;18.34;58.17;102201.29;2166871;79;52376;-75
2023/03/01 11:39:01;;;;;;;;;;;;;;;18.28;58.26;102190.66;2193431;79;51471;-74
2023/03/01 11:42:04;;;;;;;;;;;;;;;18.25;58.27;102188.27;2179768;80;51530;-75
2023/03/01 11:45:07;;;;;;;;;;;;;;;18.23;58.26;102192.42;2225539;79;51469;-75
2023/03/01 11:48:26;;;;;;;;;;;;;;;18.17;58.33;102186.30;2174206;80;52426;-75
2023/03/01 11:51:38;;;;;;;;;;;;;;;18.17;58.38;102186.30;2182962;81;51460;-75
2023/03/01 11:54:41;;;;;;;;;;;;;;;18.16;58.46;102187.30;2163877;81;50788;-75
2023/03/01 11:57:47;;;;;;;;;;;;;;;18.17;58.43;102188.98;2172838;80;50717;-75
2023/03/01 12:00:57;;;;;;;;;;;;;;;18.27;58.35;102197.02;2173297;80;49551;-75
2023/03/01 12:04:18;;;;;;;;;;;;;;;18.35;58.14;102190.44;2204002;80;50428;-76
2023/03/01 12:07:37;;;;;;;;;;;;;;;18.40;57.93;102188.17;2195763;79;51449;-75
2023/03/01 12:10:40;;;;;;;;;;;;;;;18.42;57.74;102186.20;2222410;79;50439;-75
2023/03/01 12:13:46;;;;;;;;;;;;;;;18.39;57.75;102182.95;2184279;79;50641;-75
2023/03/01 12:16:59;;;;;;;;;;;;;;;18.36;57.82;102173.36;2186538;80;50487;-75
2023/03/01 12:20:20;;;;;;;;;;;;;;;18.30;57.92;102171.27;2189889;80;51472;-74
2023/03/01 12:23:26;;;;;;;;;;;;;;;18.28;57.90;102162.02;2201596;80;50408;-75
2023/03/01 12:26:41;;;;;;;;;;;;;;;18.24;57.97;102161.98;2192265;79;50431;-75
2023/03/01 12:29:45;;;;;;;;;;;;;;;18.21;58.02;102158.72;2200342;80;50384;-74
2023/03/01 12:33:00;;;;;;;;;;;;;;;18.21;58.05;102155.57;2191719;80;50365;-76
2023/03/01 12:36:03;;;;;;;;;;;;;;;18.21;58.05;102146.66;2187072;80;50720;-75
2023/03/01 12:39:24;;;;;;;;;;;;;;;18.29;57.92;102149.49;2178006;80;51687;-75
2023/03/01 12:42:34;;;;;;;;;;;;;;;18.34;57.74;102135.64;2197290;79;51503;-75
2023/03/01 12:45:43;;;;;;;;;;;;;;;18.39;57.64;102135.55;2180586;81;51449;-75
2023/03/01 12:48:58;;;;;;;;;;;;;;;18.45;57.50;102130.96;2199802;79;50435;-74
2023/03/01 12:52:00;;;;;;;;;;;;;;;18.45;57.29;102122.92;2219806;79;51440;-76
2023/03/01 12:55:02;;;;;;;;;;;;;;;18.45;57.30;102123.42;2189260;78;50397;-74
2023/03/01 12:58:09;;;;;;;;;;;;;;;18.41;57.43;102120.17;2193625;80;51506;-75
2023/03/01 13:01:14;;;;;;;;;;;;;;;18.38;57.47;102117.79;2205229;79;50702;-75
2023/03/01 13:04:20;;;;;;;;;;;;;;;18.32;57.67;102111.69;2178580;80;51586;-74
2023/03/01 13:07:35;;;;;;;;;;;;;;;18.30;57.79;102115.00;2190606;79;54416;-74
2023/03/01 13:10:41;;;;;;;;;;;;;;;18.23;57.93;102105.34;2210903;79;51447;-75
2023/03/01 13:13:43;;;;;;;;;;;;;;;18.22;57.97;102105.50;2247368;79;51502;-74
2023/03/01 13:16:48;;;;;;;;;;;;;;;18.23;58.14;102097.80;2215854;79;52295;-75
2023/03/01 13:19:52;;;;;;;;;;;;;;;18.31;58.04;102104.61;2247253;78;22382;-76
2023/03/01 13:23:10;;;;;;;;;;;;;;;18.38;58.07;102101.70;2247002;79;51436;-74
2023/03/01 13:26:16;;;;;;;;;;;;;;;18.41;58.42;102112.13;2209976;79;50383;-74
2023/03/01 13:29:27;;;;;;;;;;;;;;;18.48;58.69;102099.00;2175725;80;49611;-75
2023/03/01 13:32:29;;;;;;;;;;;;;;;18.51;58.85;102096.02;2200341;81;51455;-74
2023/03/01 13:35:43;;;;;;;;;;;;;;;18.45;59.20;102097.45;2159381;81;51584;-75
2023/03/01 13:38:57;;;;;;;;;;;;;;;18.42;59.26;102089.72;2130605;83;51544;-75
2023/03/01 13:41:59;;;;;;;;;;;;;;;18.36;59.24;102083.59;2184680;80;52307;-74
2023/03/01 13:45:01;;;;;;;;;;;;;;;18.34;59.17;102090.95;2199022;81;50478;-74
2023/03/01 13:48:04;;;;;;;;;;;;;;;18.31;60.39;102087.20;2204490;79;50698;-74
2023/03/01 13:51:08;;;;;;;;;;;;;;;18.31;60.15;102073.80;2214239;79;50705;-75
2023/03/01 13:54:10;;;;;;;;;;;;;;;18.29;59.80;102070.45;2165671;81;52381;-75
2023/03/01 13:57:12;;;;;;;;;;;;;;;18.32;60.01;102062.11;2188594;79;50010;-74
2023/03/01 14:00:32;;;;;;;;;;;;;;;18.33;57.52;102065.62;2227514;78;50396;-74
2023/03/01 14:03:34;;;;;;;;;;;;;;;18.32;57.45;102072.83;2225094;79;50402;-74
2023/03/01 14:06:36;;;;;;;;;;;;;;;18.34;57.83;102061.48;2275398;78;52521;-73
2023/03/01 14:09:38;;;;;;;;;;;;;;;18.30;58.09;102054.70;2275400;77;51607;-74
2023/03/01 14:12:41;;;;;;;;;;;;;;;18.29;58.23;102050.36;2189899;79;50405;-74
2023/03/01 14:15:45;;;;;;;;;;;;;;;18.29;58.35;102044.99;2187150;79;50395;-74
2023/03/01 14:18:48;;;;;;;;;;;;;;;18.22;58.55;102042.05;2175743;81;50773;-74
2023/03/01 14:21:50;;;;;;;;;;;;;;;18.20;58.69;102039.16;2192026;79;50709;-74
2023/03/01 14:25:05;;;;;;;;;;;;;;;18.19;58.74;102037.48;2224824;78;51485;-74
2023/03/01 14:28:20;;;;;;;;;;;;;;;18.18;58.84;102031.77;2191579;79;51531;-74
2023/03/01 14:31:37;;;;;;;;;;;;;;;18.20;59.01;102028.45;2179214;81;52316;-76
2023/03/01 14:34:41;;;;;;;;;;;;;;;18.24;59.12;102033.37;2205400;79;51492;-76
2023/03/01 14:37:42;;;;;;;;;;;;;;;18.30;59.11;102022.55;2236207;78;51490;-73
2023/03/01 14:40:44;;;;;;;;;;;;;;;18.41;58.86;102030.89;2199319;78;50785;-74
2023/03/01 14:43:47;;;;;;;;;;;;;;;18.48;58.68;102012.73;2261338;78;52547;-72
2023/03/01 14:46:51;;;;;;;;;;;;;;;18.47;58.69;102016.42;2259745;78;49643;-74
2023/03/01 14:49:54;;;;;;;;;;;;;;;18.47;58.69;102016.88;2236698;79;50420;-73
2023/03/01 14:52:57;;;;;;;;;;;;;;;18.48;58.74;102015.91;2233558;79;51470;-72
2023/03/01 14:56:05;;;;;;;;;;;;;;;18.44;58.84;102012.67;2226963;77;52498;-72
2023/03/01 14:59:08;;;;;;;;;;;;;;;18.43;58.83;102008.31;2184276;81;51513;-72
2023/03/01 15:02:11;;;;;;;;;;;;;;;18.36;58.94;102017.93;2184111;81;50417;-72
2023/03/01 15:05:13;;;;;;;;;;;;;;;18.32;59.05;102008.52;2184304;81;50447;-72
2023/03/01 15:08:23;;;;;;;;;;;;;;;18.28;59.17;102007.11;2169460;81;52421;-72
2023/03/01 15:11:31;;;;;;;;;;;;;;;18.26;59.16;102001.92;2184152;81;50463;-73
2023/03/01 15:14:42;;;;;;;;;;;;;;;18.27;59.30;102002.76;2184370;81;51816;-72
2023/03/01 15:17:44;;;;;;;;;;;;;;;18.30;59.31;102002.45;2184255;81;51497;-72
2023/03/01 15:20:45;;;;;;;;;;;;;;;18.32;59.28;102004.50;2169155;81;49591;-71
2023/03/01 15:23:51;;;;;;;;;;;;;;;18.29;59.32;102008.82;2184304;81;51559;-72
2023/03/01 15:27:01;;;;;;;;;;;;;;;18.29;59.25;102007.48;2192713;81;50387;-72
2023/03/01 15:30:02;;;;;;;;;;;;;;;18.25;59.29;102007.41;2199545;80;22815;-72
2023/03/01 15:33:21;;;;;;;;;;;;;;;18.20;59.36;102011.88;2179519;80;51863;-72
2023/03/01 15:36:23;;;;;;;;;;;;;;;18.17;59.34;102000.62;2200925;80;22257;-72
2023/03/01 15:39:26;;;;;;;;;;;;;;;18.14;59.35;102003.59;2193324;80;50422;-71
2023/03/01 15:42:29;;;;;;;;;;;;;;;18.11;59.37;101996.70;2201308;80;50423;-73
2023/03/01 15:45:33;;;;;;;;;;;;;;;18.10;59.46;102000.85;2179800;81;52246;-73
2023/03/01 15:48:34;;;;;;;;;;;;;;;18.13;59.40;101996.53;2203757;80;21776;-73
2023/03/01 15:51:36;;;;;;;;;;;;;;;18.19;59.27;101995.96;2201441;80;50339;-73
2023/03/01 15:54:40;;;;;;;;;;;;;;;18.26;59.10;101990.34;2202022;79;51527;-73
2023/03/01 15:57:41;;;;;;;;;;;;;;;18.31;58.94;101994.75;2177821;81;52521;-72
2023/03/01 16:00:43;;;;;;;;;;;;;;;18.38;58.78;101995.02;2227527;79;51381;-72
2023/03/01 16:03:45;;;;;;;;;;;;;;;18.43;58.59;101986.88;2203354;80;51429;-74
2023/03/01 16:06:53;;;;;;;;;;;;;;;18.47;58.37;101998.99;2203687;81;50371;-71
2023/03/01 16:09:53;;;;;;;;;;;;;;;18.46;58.15;101989.25;2227056;79;22342;-72
2023/03/01 16:12:54;;;;;;;;;;;;;;;18.42;58.07;101984.33;2203463;81;52000;-71
2023/03/01 16:15:56;;;;;;;;;;;;;;;18.39;57.94;101987.31;2203543;80;51467;-74
2023/03/01 16:18:58;;;;;;;;;;;;;;;18.34;57.96;101981.09;2224120;78;49943;-73